createdAt,value
2023-04-07T00:01:50.114Z,8.10
2023-04-07T00:04:18.329Z,8.10
2023-04-07T00:06:46.611Z,8.10
2023-04-07T00:09:14.665Z,8.10
2023-04-07T00:11:42.694Z,8.10
2023-04-07T00:14:10.778Z,8.10
2023-04-07T00:16:40.525Z,8.10
2023-04-07T00:19:08.737Z,8.10
2023-04-07T00:21:36.799Z,8.10
2023-04-07T00:24:05.068Z,8.10
2023-04-07T00:26:33.234Z,8.00
2023-04-07T00:29:01.780Z,8.00
2023-04-07T00:31:29.985Z,8.00
2023-04-07T00:33:59.667Z,8.00
2023-04-07T00:36:28.668Z,8.00
2023-04-07T00:38:56.618Z,8.00
2023-04-07T00:41:24.638Z,7.90
2023-04-07T00:43:53.419Z,7.90
2023-04-07T00:46:23.932Z,7.90
2023-04-07T00:48:52.052Z,7.90
2023-04-07T00:51:22.466Z,7.90
2023-04-07T00:53:50.953Z,7.90
2023-04-07T00:56:18.981Z,7.80
2023-04-07T00:58:47.057Z,7.80
2023-04-07T01:01:22.275Z,7.80
2023-04-07T01:03:55.802Z,7.80
2023-04-07T01:06:30.351Z,7.80
2023-04-07T01:09:05.197Z,7.80
2023-04-07T01:11:39.014Z,7.80
2023-04-07T01:14:08.402Z,7.80
2023-04-07T01:16:41.603Z,7.80
2023-04-07T01:19:16.827Z,7.80
2023-04-07T01:21:49.568Z,7.80
2023-04-07T01:24:35.865Z,7.80
2023-04-07T01:27:15.326Z,7.70
2023-04-07T01:29:48.193Z,7.70
2023-04-07T01:32:18.096Z,7.70
2023-04-07T01:34:48.812Z,7.70
2023-04-07T01:37:18.098Z,7.70
2023-04-07T01:39:46.317Z,7.70
2023-04-07T01:42:15.452Z,7.70
2023-04-07T01:44:45.675Z,7.70
2023-04-07T01:47:14.217Z,7.70
2023-04-07T01:49:42.871Z,7.70
2023-04-07T01:52:11.719Z,7.70
2023-04-07T01:54:41.251Z,7.70
2023-04-07T01:57:09.229Z,7.70
2023-04-07T01:59:37.312Z,7.70
2023-04-07T02:02:07.048Z,7.70
2023-04-07T02:04:39.362Z,7.70
2023-04-07T02:07:10.678Z,7.70
2023-04-07T02:09:41.564Z,7.60
2023-04-07T02:12:12.766Z,7.60
2023-04-07T02:14:41.472Z,7.60
2023-04-07T02:17:11.772Z,7.60
2023-04-07T02:19:40.158Z,7.60
2023-04-07T02:22:09.123Z,7.60
2023-04-07T02:24:37.180Z,7.50
2023-04-07T02:27:05.351Z,7.50
2023-04-07T02:29:33.383Z,7.50
2023-04-07T02:32:01.785Z,7.40
2023-04-07T02:34:31.403Z,7.40
2023-04-07T02:36:59.512Z,7.30
2023-04-07T02:39:27.521Z,7.30
2023-04-07T02:41:58.561Z,7.20
2023-04-07T02:44:26.660Z,7.20
2023-04-07T02:46:57.300Z,7.10
2023-04-07T02:49:25.307Z,7.10
2023-04-07T02:51:54.962Z,7.10
2023-04-07T02:54:22.949Z,7.00
2023-04-07T02:56:50.933Z,7.00
2023-04-07T02:59:21.279Z,7.00
2023-04-07T03:01:49.370Z,7.00
2023-04-07T03:04:17.592Z,7.00
2023-04-07T03:06:45.827Z,6.90
2023-04-07T03:09:18.058Z,6.90
2023-04-07T03:11:46.076Z,6.90
2023-04-07T03:14:14.008Z,6.90
2023-04-07T03:16:42.252Z,6.90
2023-04-07T03:19:10.395Z,6.90
2023-04-07T03:21:39.783Z,6.90
2023-04-07T03:24:08.732Z,6.90
2023-04-07T03:26:38.392Z,6.80
2023-04-07T03:29:06.575Z,6.80
2023-04-07T03:31:34.613Z,6.80
2023-04-07T03:34:02.648Z,6.80
2023-04-07T03:36:31.620Z,6.80
2023-04-07T03:38:59.943Z,6.80
2023-04-07T03:41:27.959Z,6.80
2023-04-07T03:43:57.294Z,6.80
2023-04-07T03:46:27.065Z,6.80
2023-04-07T03:48:55.470Z,6.70
2023-04-07T03:51:23.430Z,6.70
2023-04-07T03:53:53.715Z,6.70
2023-04-07T03:56:22.507Z,6.70
2023-04-07T03:58:50.569Z,6.70
2023-04-07T04:01:20.172Z,6.70
2023-04-07T04:03:48.592Z,6.70
2023-04-07T04:06:16.712Z,6.70
2023-04-07T04:08:44.782Z,6.70
2023-04-07T04:11:12.787Z,6.70
2023-04-07T04:13:41.007Z,6.70
2023-04-07T04:16:09.720Z,6.70
2023-04-07T04:18:39.049Z,6.60
2023-04-07T04:21:07.927Z,6.60
2023-04-07T04:23:36.123Z,6.60
2023-04-07T04:26:04.666Z,6.60
2023-04-07T04:28:32.609Z,6.60
2023-04-07T04:31:00.620Z,6.60
2023-04-07T04:33:28.573Z,6.60
2023-04-07T04:35:58.035Z,6.60
2023-04-07T04:38:26.105Z,6.60
2023-04-07T04:40:54.124Z,6.60
2023-04-07T04:43:22.105Z,6.60
2023-04-07T04:45:50.348Z,6.60
2023-04-07T04:48:18.394Z,6.60
2023-04-07T04:50:46.421Z,6.60
2023-04-07T04:53:15.776Z,6.60
2023-04-07T04:55:47.098Z,6.60
2023-04-07T04:58:15.081Z,6.60
2023-04-07T05:00:43.101Z,6.60
2023-04-07T05:03:11.544Z,6.60
2023-04-07T05:05:39.917Z,6.60
2023-04-07T05:08:08.101Z,6.60
2023-04-07T05:10:41.404Z,6.60
2023-04-07T05:13:09.528Z,6.60
2023-04-07T05:15:37.516Z,6.60
2023-04-07T05:18:05.660Z,6.60
2023-04-07T05:20:33.815Z,6.70
2023-04-07T05:23:01.947Z,6.70
2023-04-07T05:25:30.006Z,6.70
2023-04-07T05:27:59.781Z,6.70
2023-04-07T05:30:27.968Z,6.70
2023-04-07T05:32:56.070Z,6.70
2023-04-07T05:35:24.213Z,6.80
2023-04-07T05:37:52.423Z,6.80
2023-04-07T05:40:20.566Z,6.80
2023-04-07T05:42:48.532Z,6.80
2023-04-07T05:45:18.241Z,6.80
2023-04-07T05:47:47.424Z,6.80
2023-04-07T05:50:15.535Z,6.80
2023-04-07T05:52:46.034Z,6.80
2023-04-07T05:55:14.184Z,6.80
2023-04-07T05:57:42.690Z,6.80
2023-04-07T06:00:12.054Z,6.80
2023-04-07T06:02:41.610Z,6.80
2023-04-07T06:05:10.108Z,6.80
2023-04-07T06:07:38.108Z,6.80
2023-04-07T06:10:07.091Z,6.80
2023-04-07T06:12:35.061Z,6.80
2023-04-07T06:15:03.168Z,6.90
2023-04-07T06:17:31.329Z,6.90
2023-04-07T06:20:00.757Z,6.90
2023-04-07T06:22:28.778Z,6.90
2023-04-07T06:24:56.905Z,6.90
2023-04-07T06:27:25.070Z,7.00
2023-04-07T06:29:53.094Z,7.00
2023-04-07T06:32:21.452Z,7.00
2023-04-07T06:34:49.600Z,7.00
2023-04-07T06:37:19.253Z,7.10
2023-04-07T06:39:47.370Z,7.10
2023-04-07T06:42:15.648Z,7.10
2023-04-07T06:44:43.693Z,7.10
2023-04-07T06:47:11.648Z,7.20
2023-04-07T06:49:39.720Z,7.30
2023-04-07T06:52:07.743Z,7.30
2023-04-07T06:54:37.172Z,7.30
2023-04-07T06:57:06.767Z,7.40
2023-04-07T06:59:34.843Z,7.40
2023-04-07T07:02:03.167Z,7.40
2023-04-07T07:04:31.476Z,7.50
2023-04-07T07:06:59.668Z,7.50
2023-04-07T07:09:27.932Z,7.60
2023-04-07T07:11:57.779Z,7.70
2023-04-07T07:14:25.883Z,7.70
2023-04-07T07:16:54.028Z,7.70
2023-04-07T07:19:22.015Z,7.70
2023-04-07T07:21:50.083Z,7.70
2023-04-07T07:24:18.064Z,7.80
2023-04-07T07:26:46.093Z,7.80
2023-04-07T07:29:15.536Z,7.80
2023-04-07T07:31:43.943Z,7.90
2023-04-07T07:34:11.894Z,7.90
2023-04-07T07:36:39.965Z,8.00
2023-04-07T07:39:08.055Z,8.10
2023-04-07T07:41:36.349Z,8.20
2023-04-07T07:44:04.418Z,8.20
2023-04-07T07:46:34.124Z,8.30
2023-04-07T07:49:02.400Z,8.40
2023-04-07T07:51:30.734Z,8.40
2023-04-07T07:53:58.874Z,8.70
2023-04-07T07:56:27.409Z,8.80
2023-04-07T07:58:55.997Z,8.90
2023-04-07T08:01:25.250Z,9.00
2023-04-07T08:03:54.935Z,9.10
2023-04-07T08:06:23.404Z,9.20
2023-04-07T08:08:54.771Z,9.20
2023-04-07T08:11:23.149Z,9.10
2023-04-07T08:13:51.482Z,9.20
2023-04-07T08:16:19.572Z,9.20
2023-04-07T08:18:47.811Z,9.40
2023-04-07T08:21:17.522Z,9.50
2023-04-07T08:23:46.528Z,9.40
2023-04-07T08:26:14.741Z,9.40
2023-04-07T08:28:42.805Z,9.50
2023-04-07T08:31:11.027Z,9.50
2023-04-07T08:33:39.262Z,9.40
2023-04-07T08:36:07.918Z,9.40
2023-04-07T08:38:37.474Z,9.40
2023-04-07T08:41:08.948Z,9.50
2023-04-07T08:43:37.834Z,9.60
2023-04-07T08:46:07.557Z,9.70
2023-04-07T08:48:36.079Z,9.70
2023-04-07T08:51:06.858Z,9.70
2023-04-07T08:53:41.914Z,9.80
2023-04-07T08:56:12.365Z,9.90
2023-04-07T08:58:41.149Z,9.90
2023-04-07T09:01:11.140Z,9.90
2023-04-07T09:03:39.997Z,10.00
2023-04-07T09:06:08.468Z,9.90
2023-04-07T09:08:37.943Z,9.90
2023-04-07T09:11:06.274Z,9.90
2023-04-07T09:13:34.507Z,10.00
2023-04-07T09:16:04.825Z,10.20
2023-04-07T09:18:36.052Z,10.30
2023-04-07T09:21:07.745Z,10.30
2023-04-07T09:23:43.745Z,10.30
2023-04-07T09:26:24.932Z,10.50
2023-04-07T09:28:56.315Z,10.50
2023-04-07T09:31:44.836Z,10.40
2023-04-07T09:34:25.775Z,10.30
2023-04-07T09:36:54.975Z,10.50
2023-04-07T09:39:24.475Z,10.50
2023-04-07T09:41:53.145Z,10.60
2023-04-07T09:44:21.688Z,10.80
2023-04-07T09:46:50.729Z,10.80
2023-04-07T09:49:20.178Z,10.80
2023-04-07T09:51:59.791Z,10.90
2023-04-07T09:54:37.504Z,10.90
2023-04-07T09:57:07.441Z,11.00
2023-04-07T09:59:39.721Z,10.90
2023-04-07T10:02:09.655Z,10.90
2023-04-07T10:04:41.193Z,11.00
2023-04-07T10:07:09.582Z,11.00
2023-04-07T10:09:39.156Z,11.00
2023-04-07T10:12:08.210Z,11.20
2023-04-07T10:14:40.195Z,11.30
2023-04-07T10:17:09.964Z,11.30
2023-04-07T10:19:38.920Z,11.40
2023-04-07T10:22:08.874Z,11.50
2023-04-07T10:24:55.048Z,11.70
2023-04-07T10:27:30.683Z,11.60
2023-04-07T10:30:00.156Z,11.40
2023-04-07T10:32:28.659Z,11.70
2023-04-07T10:35:01.303Z,12.00
2023-04-07T10:37:31.381Z,12.30
2023-04-07T10:40:35.913Z,12.70
2023-04-07T10:43:11.898Z,12.70
2023-04-07T10:46:00.735Z,12.60
2023-04-07T10:48:33.455Z,12.30
2023-04-07T10:51:18.779Z,12.30
2023-04-07T10:54:22.440Z,12.50
2023-04-07T10:57:11.898Z,12.50
2023-04-07T10:59:46.941Z,12.70
2023-04-07T11:02:36.779Z,13.00
2023-04-07T11:05:05.430Z,12.80
2023-04-07T11:08:02.767Z,12.90
2023-04-07T11:10:30.928Z,13.20
2023-04-07T11:13:04.321Z,13.20
2023-04-07T11:15:35.313Z,12.90
2023-04-07T11:18:18.732Z,12.90
2023-04-07T11:20:53.172Z,12.60
2023-04-07T11:23:23.194Z,12.70
2023-04-07T11:25:52.750Z,12.80
2023-04-07T11:28:21.191Z,13.00
2023-04-07T11:30:52.918Z,13.50
2023-04-07T11:33:22.488Z,13.80
2023-04-07T11:35:56.884Z,14.00
2023-04-07T11:38:27.280Z,13.70
2023-04-07T11:40:56.123Z,13.50
2023-04-07T11:43:25.614Z,13.20
2023-04-07T11:46:11.901Z,12.90
2023-04-07T11:48:42.231Z,13.10
2023-04-07T11:51:17.930Z,12.80
2023-04-07T11:53:47.556Z,12.80
2023-04-07T11:56:22.802Z,12.60
2023-04-07T11:58:51.482Z,12.70
2023-04-07T12:01:21.426Z,12.60
2023-04-07T12:04:00.409Z,12.80
2023-04-07T12:06:30.432Z,12.70
2023-04-07T12:08:58.537Z,12.80
2023-04-07T12:11:27.128Z,13.10
2023-04-07T12:13:56.139Z,13.20
2023-04-07T12:16:26.069Z,13.20
2023-04-07T12:18:54.606Z,13.10
2023-04-07T12:21:22.747Z,13.10
2023-04-07T12:23:51.751Z,13.00
2023-04-07T12:26:22.454Z,13.10
2023-04-07T12:28:51.531Z,13.20
2023-04-07T12:31:19.727Z,13.10
2023-04-07T12:33:49.792Z,13.20
2023-04-07T12:36:18.094Z,13.20
2023-04-07T12:38:47.231Z,13.20
2023-04-07T12:41:15.658Z,13.30
2023-04-07T12:43:44.454Z,13.30
2023-04-07T12:48:42.466Z,13.30
2023-04-07T12:51:11.883Z,13.30
2023-04-07T12:53:40.217Z,13.40
2023-04-07T12:56:08.457Z,13.60
2023-04-07T12:58:36.613Z,13.70
2023-04-07T13:01:04.672Z,13.70
2023-04-07T13:03:32.912Z,13.90
2023-04-07T13:06:01.705Z,14.10
2023-04-07T13:08:31.415Z,14.00
2023-04-07T13:10:59.487Z,13.90
2023-04-07T13:13:27.528Z,13.90
2023-04-07T13:15:55.537Z,14.00
2023-04-07T13:18:23.560Z,14.40
2023-04-07T13:21:06.639Z,15.00
2023-04-07T13:23:43.954Z,15.40
2023-04-07T13:26:12.548Z,15.80
2023-04-07T13:28:41.414Z,16.10
2023-04-07T13:31:11.853Z,16.50
2023-04-07T13:33:41.200Z,17.00
2023-04-07T13:36:09.336Z,17.60
2023-04-07T13:38:37.713Z,17.90
2023-04-07T13:41:07.270Z,18.30
2023-04-07T13:43:35.850Z,18.10
2023-04-07T13:46:06.322Z,18.10
2023-04-07T13:48:37.884Z,18.30
2023-04-07T13:51:06.090Z,18.60
2023-04-07T13:53:34.190Z,18.50
2023-04-07T13:56:03.562Z,18.80
2023-04-07T13:58:33.378Z,19.10
2023-04-07T14:01:01.965Z,19.40
2023-04-07T14:03:31.853Z,20.10
2023-04-07T14:06:04.390Z,20.60
2023-04-07T14:08:33.160Z,20.90
2023-04-07T14:11:01.235Z,21.10
2023-04-07T14:13:29.332Z,21.00
2023-04-07T14:15:59.328Z,20.30
2023-04-07T14:18:28.088Z,20.10
2023-04-07T14:20:56.145Z,20.60
2023-04-07T14:23:36.142Z,20.60
2023-04-07T14:26:05.616Z,21.10
2023-04-07T14:28:33.673Z,21.30
2023-04-07T14:31:03.170Z,20.80
2023-04-07T14:33:31.336Z,21.60
2023-04-07T14:35:59.660Z,21.70
2023-04-07T14:38:27.689Z,21.70
2023-04-07T14:40:55.751Z,22.00
2023-04-07T14:43:23.853Z,21.50
2023-04-07T14:45:52.156Z,21.90
2023-04-07T14:48:22.051Z,21.90
2023-04-07T14:51:02.241Z,22.50
2023-04-07T14:53:34.955Z,22.10
2023-04-07T14:56:05.997Z,21.90
2023-04-07T14:58:37.179Z,22.20
2023-04-07T15:01:06.360Z,22.60
2023-04-07T15:03:36.848Z,22.90
2023-04-07T15:06:10.071Z,22.50
2023-04-07T15:08:38.377Z,22.50
2023-04-07T15:11:06.753Z,22.80
2023-04-07T15:13:35.267Z,23.00
2023-04-07T15:16:11.307Z,23.30
2023-04-07T15:18:42.473Z,23.20
2023-04-07T15:21:11.178Z,21.70
2023-04-07T15:23:41.799Z,20.20
2023-04-07T15:26:10.731Z,19.70
2023-04-07T15:28:39.299Z,19.10
2023-04-07T15:31:08.863Z,18.30
2023-04-07T15:33:40.766Z,17.90
2023-04-07T15:36:11.046Z,17.60
2023-04-07T15:38:40.382Z,17.40
2023-04-07T15:41:08.703Z,17.50
2023-04-07T15:43:38.030Z,18.10
2023-04-07T15:46:06.395Z,18.50
2023-04-07T15:48:34.421Z,18.50
2023-04-07T15:51:02.547Z,18.40
2023-04-07T15:53:32.434Z,18.10
2023-04-07T15:56:00.481Z,17.70
2023-04-07T15:58:28.582Z,17.40
2023-04-07T16:00:56.662Z,17.20
2023-04-07T16:03:24.998Z,16.90
2023-04-07T16:05:55.948Z,16.60
2023-04-07T16:08:23.985Z,16.20
2023-04-07T16:10:53.878Z,16.00
2023-04-07T16:13:22.008Z,15.90
2023-04-07T16:15:50.290Z,15.70
2023-04-07T16:18:18.728Z,15.60
2023-04-07T16:20:46.838Z,15.40
2023-04-07T16:23:14.864Z,15.30
2023-04-07T16:25:42.999Z,15.20
2023-04-07T16:28:12.762Z,15.20
2023-04-07T16:30:40.917Z,15.10
2023-04-07T16:33:09.194Z,15.00
2023-04-07T16:35:37.577Z,14.90
2023-04-07T16:38:06.372Z,14.80
2023-04-07T16:40:35.067Z,14.70
2023-04-07T16:43:03.715Z,14.70
2023-04-07T16:45:33.296Z,14.60
2023-04-07T16:48:02.745Z,14.50
2023-04-07T16:50:31.049Z,14.60
2023-04-07T16:52:59.291Z,14.60
2023-04-07T16:55:27.537Z,14.50
2023-04-07T16:57:56.091Z,14.50
2023-04-07T17:00:24.492Z,14.40
2023-04-07T17:02:54.041Z,14.40
2023-04-07T17:05:22.576Z,14.30
2023-04-07T17:07:51.645Z,14.30
2023-04-07T17:10:19.730Z,14.30
2023-04-07T17:12:52.189Z,14.40
2023-04-07T17:15:21.469Z,14.30
2023-04-07T17:17:49.785Z,14.30
2023-04-07T17:20:19.852Z,14.20
2023-04-07T17:22:48.974Z,14.10
2023-04-07T17:25:19.027Z,13.90
2023-04-07T17:27:47.928Z,13.80
2023-04-07T17:30:18.292Z,13.70
2023-04-07T17:32:46.615Z,13.60
2023-04-07T17:35:14.792Z,13.50
2023-04-07T17:37:44.657Z,13.40
2023-04-07T17:40:13.921Z,13.20
2023-04-07T17:42:42.927Z,13.10
2023-04-07T17:45:11.933Z,13.00
2023-04-07T17:47:40.439Z,12.90
2023-04-07T17:50:09.522Z,12.80
2023-04-07T17:52:37.657Z,12.70
2023-04-07T17:55:08.620Z,12.50
2023-04-07T17:57:37.302Z,12.40
2023-04-07T18:00:06.537Z,12.30
2023-04-07T18:02:35.099Z,12.20
2023-04-07T18:05:07.488Z,12.10
2023-04-07T18:07:35.677Z,12.00
2023-04-07T18:10:04.119Z,11.90
2023-04-07T18:12:33.898Z,11.70
2023-04-07T18:15:02.045Z,11.70
2023-04-07T18:17:30.333Z,11.50
2023-04-07T18:19:58.421Z,11.40
2023-04-07T18:22:28.163Z,11.30
2023-04-07T18:24:56.531Z,11.30
2023-04-07T18:27:26.781Z,11.20
2023-04-07T18:29:56.530Z,11.00
2023-04-07T18:32:25.097Z,10.90
2023-04-07T18:34:54.930Z,10.80
2023-04-07T18:37:23.248Z,10.70
2023-04-07T18:39:52.089Z,10.60
2023-04-07T18:42:20.410Z,10.50
2023-04-07T18:44:48.708Z,10.40
2023-04-07T18:47:18.428Z,10.20
2023-04-07T18:49:46.396Z,10.20
2023-04-07T18:52:14.503Z,10.10
2023-04-07T18:54:42.605Z,10.00
2023-04-07T18:57:10.621Z,9.90
2023-04-07T18:59:38.575Z,9.80
2023-04-07T19:02:07.469Z,9.80
2023-04-07T19:04:37.283Z,9.70
2023-04-07T19:07:05.388Z,9.60
2023-04-07T19:09:33.749Z,9.50
2023-04-07T19:12:01.823Z,9.40
2023-04-07T19:14:29.831Z,9.30
2023-04-07T19:16:57.871Z,9.20
2023-04-07T19:19:26.009Z,9.10
2023-04-07T19:21:55.865Z,9.00
2023-04-07T19:24:23.820Z,8.90
2023-04-07T19:26:52.696Z,8.80
2023-04-07T19:29:21.067Z,8.80
2023-04-07T19:31:49.329Z,8.70
2023-04-07T19:34:17.391Z,8.60
2023-04-07T19:36:45.406Z,8.50
2023-04-07T19:39:16.164Z,8.50
2023-04-07T19:41:44.248Z,8.40
2023-04-07T19:44:12.733Z,8.20
2023-04-07T19:46:42.195Z,8.20
2023-04-07T19:49:10.603Z,8.10
2023-04-07T19:51:38.919Z,8.00
2023-04-07T19:54:07.227Z,7.90
2023-04-07T19:56:36.817Z,7.80
2023-04-07T19:59:05.041Z,7.70
2023-04-07T20:01:33.257Z,7.70
2023-04-07T20:04:01.708Z,7.60
2023-04-07T20:06:31.139Z,7.50
2023-04-07T20:09:00.638Z,7.40
2023-04-07T20:11:28.747Z,7.30
2023-04-07T20:13:58.171Z,7.30
2023-04-07T20:16:26.262Z,7.20
2023-04-07T20:18:55.096Z,7.10
2023-04-07T20:21:23.681Z,7.10
2023-04-07T20:23:52.237Z,7.00
2023-04-07T20:26:21.977Z,6.90
2023-04-07T20:28:50.175Z,6.80
2023-04-07T20:31:20.056Z,6.70
2023-04-07T20:33:48.039Z,6.70
2023-04-07T20:36:16.176Z,6.60
2023-04-07T20:38:44.584Z,6.50
2023-04-07T20:41:13.674Z,6.50
2023-04-07T20:43:41.781Z,6.40
2023-04-07T20:46:10.044Z,6.30
2023-04-07T20:48:39.516Z,6.30
2023-04-07T20:51:07.752Z,6.20
2023-04-07T20:53:36.271Z,6.10
2023-04-07T20:56:04.893Z,6.00
2023-04-07T20:58:33.010Z,5.90
2023-04-07T21:01:01.785Z,5.80
2023-04-07T21:03:31.040Z,5.80
2023-04-07T21:06:00.499Z,5.70
2023-04-07T21:08:28.517Z,5.60
2023-04-07T21:10:56.604Z,5.60
2023-04-07T21:13:27.009Z,5.50
2023-04-07T21:15:55.114Z,5.40
2023-04-07T21:18:23.089Z,5.40
2023-04-07T21:20:51.075Z,5.40
2023-04-07T21:23:20.407Z,5.30
2023-04-07T21:25:48.525Z,5.20
2023-04-07T21:28:16.893Z,5.20
2023-04-07T21:30:44.924Z,5.20
2023-04-07T21:33:14.055Z,5.10
2023-04-07T21:35:42.143Z,5.10
2023-04-07T21:38:10.182Z,5.00
2023-04-07T21:40:39.535Z,5.00
2023-04-07T21:43:07.613Z,4.90
2023-04-07T21:45:35.761Z,4.90
2023-04-07T21:48:03.899Z,4.80
2023-04-07T21:50:32.210Z,4.80
2023-04-07T21:53:00.305Z,4.70
2023-04-07T21:55:28.628Z,4.60
2023-04-07T21:57:58.099Z,4.60
2023-04-07T22:00:26.156Z,4.60
2023-04-07T22:02:55.192Z,4.50
2023-04-07T22:05:23.724Z,4.50
2023-04-07T22:07:51.718Z,4.40
2023-04-07T22:10:19.789Z,4.40
2023-04-07T22:12:47.728Z,4.30
2023-04-07T22:15:17.052Z,4.30
2023-04-07T22:17:45.149Z,4.20
2023-04-07T22:20:13.471Z,4.20
2023-04-07T22:22:42.022Z,4.10
2023-04-07T22:25:10.878Z,4.10
2023-04-07T22:27:40.943Z,4.00
2023-04-07T22:30:10.935Z,4.00
2023-04-07T22:32:41.602Z,3.90
2023-04-07T22:35:12.978Z,3.90
2023-04-07T22:37:41.088Z,3.90
2023-04-07T22:40:10.652Z,3.80
2023-04-07T22:42:44.335Z,3.80
2023-04-07T22:45:14.886Z,3.80
2023-04-07T22:47:45.057Z,3.80
2023-04-07T22:50:13.142Z,3.80
2023-04-07T22:52:41.272Z,3.70
2023-04-07T22:55:10.155Z,3.70
2023-04-07T22:57:38.412Z,3.70
2023-04-07T23:00:07.853Z,3.70
2023-04-07T23:02:36.065Z,3.70
2023-04-07T23:05:07.516Z,3.60
2023-04-07T23:07:35.643Z,3.60
2023-04-07T23:10:03.845Z,3.60
2023-04-07T23:12:32.270Z,3.50
2023-04-07T23:15:00.386Z,3.50
2023-04-07T23:17:28.748Z,3.50
2023-04-07T23:19:56.757Z,3.50
2023-04-07T23:22:26.334Z,3.40
2023-04-07T23:24:54.304Z,3.40
2023-04-07T23:27:22.299Z,3.40
2023-04-07T23:29:50.806Z,3.40
2023-04-07T23:32:18.765Z,3.40
2023-04-07T23:34:46.731Z,3.40
2023-04-07T23:37:14.715Z,3.40
2023-04-07T23:39:44.028Z,3.40
2023-04-07T23:42:12.059Z,3.40
2023-04-07T23:44:40.251Z,3.40
2023-04-07T23:47:08.346Z,3.30
2023-04-07T23:49:36.526Z,3.30
2023-04-07T23:52:04.702Z,3.30
2023-04-07T23:54:32.654Z,3.30
2023-04-07T23:57:02.740Z,3.30
2023-04-07T23:59:30.741Z,3.30
